Terminal Aerodrome Forecast
Issued by NWS Wilmington, NC

Home | Current Version | Previous Version | Text Only | Print | Product List | Glossary On
Versions: 1 2 3 4 5 6 7 8 9 10 11 12 13 14 15 16 17 18 19 20 21
000
FTUS42 KILM 301730
TAFFLO
TAF
KFLO 301730Z 3018/0118 13010KT P6SM BKN025 OVC040
      TEMPO 3018/3022 BKN040
     FM010200 13006KT P6SM BKN015
     FM010500 14006KT P6SM BKN005 OVC012
     FM011300 18009KT P6SM VCSH BKN010 OVC020=

USA.gov is the U.S. government's official web portal to all federal, state and local government web resources and services.